createdAt,value
2019-06-10T06:41:25.622Z,4.00
2019-06-10T06:43:54.184Z,3.90
2019-06-10T06:46:23.353Z,4.05
2019-06-10T06:48:53.210Z,3.87
2019-06-10T06:51:36.402Z,4.12
2019-06-10T06:53:56.273Z,4.60
2019-06-10T06:56:34.544Z,4.83
2019-06-10T06:59:02.388Z,4.67
2019-06-10T07:01:34.674Z,5.08
2019-06-10T07:04:02.592Z,4.58
2019-06-10T07:06:34.079Z,4.42
2019-06-10T07:09:07.416Z,4.53
2019-06-10T07:11:45.236Z,4.33
2019-06-10T07:14:13.347Z,4.08
2019-06-10T07:16:45.920Z,3.67
2019-06-10T07:19:13.196Z,3.40
2019-06-10T07:22:02.282Z,3.15
2019-06-10T07:24:13.456Z,2.80
2019-06-10T07:26:50.201Z,2.58
2019-06-10T07:29:13.174Z,2.60
2019-06-10T07:31:45.994Z,2.52
2019-06-10T07:34:12.911Z,2.35
2019-06-10T07:36:44.127Z,2.42
2019-06-10T07:39:13.417Z,2.50
2019-06-10T07:41:47.501Z,2.40
2019-06-10T07:44:12.601Z,2.70
2019-06-10T07:46:43.793Z,2.65
2019-06-10T07:49:13.570Z,2.60
2019-06-10T07:51:45.580Z,2.67
2019-06-10T07:54:12.530Z,2.40
2019-06-10T07:56:47.543Z,2.15
2019-06-10T07:59:12.915Z,2.60
2019-06-10T08:02:06.026Z,2.58
2019-06-10T08:04:35.222Z,2.40
2019-06-10T08:07:05.004Z,2.75
2019-06-10T08:09:46.225Z,2.22
2019-06-10T08:12:16.077Z,2.40
2019-06-10T08:14:45.730Z,2.85
2019-06-10T08:17:14.619Z,2.25
2019-06-10T08:19:49.022Z,2.85
2019-06-10T08:22:31.292Z,2.60
2019-06-10T08:24:52.244Z,2.70
2019-06-10T08:27:22.554Z,2.65
2019-06-10T08:30:07.791Z,2.33
2019-06-10T08:32:21.257Z,2.33
2019-06-10T08:34:49.781Z,2.80
2019-06-10T08:37:27.647Z,2.62
2019-06-10T08:39:56.158Z,2.85
2019-06-10T08:42:32.439Z,2.58
2019-06-10T08:45:03.454Z,2.47
2019-06-10T08:47:32.606Z,2.37
2019-06-10T08:50:02.601Z,2.80
2019-06-10T08:52:49.378Z,2.70
2019-06-10T08:55:03.295Z,3.10
2019-06-10T08:57:33.534Z,2.70
2019-06-10T09:00:07.051Z,2.52
2019-06-10T09:02:33.413Z,2.90
2019-06-10T09:05:03.688Z,3.42
2019-06-10T09:07:32.459Z,2.80
2019-06-10T09:10:02.993Z,2.85
2019-06-10T09:12:36.415Z,3.02
2019-06-10T09:15:03.749Z,3.22
2019-06-10T09:17:33.786Z,2.67
2019-06-10T09:20:13.007Z,2.90
2019-06-10T09:23:15.138Z,3.20
2019-06-10T09:25:33.163Z,3.20
2019-06-10T09:28:02.372Z,3.12
2019-06-10T09:30:33.208Z,3.40
2019-06-10T09:33:04.051Z,2.65
2019-06-10T09:35:32.308Z,3.47
2019-06-10T09:38:03.526Z,2.80
2019-06-10T09:40:59.937Z,2.80
2019-06-10T09:43:23.514Z,3.22
2019-06-10T09:45:56.369Z,3.05
2019-06-10T09:48:24.445Z,3.10
2019-06-10T09:50:57.885Z,3.35
2019-06-10T09:53:32.790Z,3.13
2019-06-10T09:55:55.522Z,3.42
2019-06-10T09:58:33.492Z,2.90
2019-06-10T10:01:03.254Z,3.00
2019-06-10T10:03:32.969Z,2.85
2019-06-10T10:06:13.684Z,3.40
2019-06-10T10:08:33.831Z,3.20
2019-06-10T10:11:02.372Z,3.17
2019-06-10T10:13:34.983Z,3.60
2019-06-10T10:16:02.604Z,3.45
2019-06-10T10:18:33.498Z,3.85
2019-06-10T10:21:03.924Z,3.33
2019-06-10T10:23:49.135Z,3.58
2019-06-10T10:26:03.437Z,3.42
2019-06-10T10:28:33.402Z,3.62
2019-06-10T10:31:04.380Z,3.25
2019-06-10T10:33:44.584Z,3.72
2019-06-10T10:36:14.186Z,3.72
2019-06-10T10:38:42.830Z,3.95
2019-06-10T10:41:17.749Z,3.27
2019-06-10T10:43:48.652Z,4.00
2019-06-10T10:46:16.566Z,3.72
2019-06-10T10:48:45.239Z,3.90
2019-06-10T10:51:27.135Z,3.62
2019-06-10T10:54:20.163Z,3.40
2019-06-10T10:56:26.036Z,3.85
2019-06-10T10:58:57.674Z,3.85
2019-06-10T11:01:24.838Z,3.65
2019-06-10T11:03:58.790Z,3.58
2019-06-10T11:06:23.552Z,4.50
2019-06-10T11:08:57.099Z,3.65
2019-06-10T11:11:24.155Z,3.33
2019-06-10T11:13:56.723Z,3.90
2019-06-10T11:16:23.529Z,4.10
2019-06-10T11:18:54.062Z,3.95
2019-06-10T11:21:42.639Z,3.65
2019-06-10T11:24:14.171Z,3.52
2019-06-10T11:26:42.983Z,3.67
2019-06-10T11:29:11.248Z,3.80
2019-06-10T11:31:42.006Z,3.77
2019-06-10T11:34:09.913Z,4.03
2019-06-10T11:36:38.653Z,3.67
2019-06-10T11:39:08.245Z,3.65
2019-06-10T11:41:36.905Z,4.17
2019-06-10T11:44:05.531Z,4.12
2019-06-10T11:46:34.061Z,3.60
2019-06-10T11:49:03.866Z,4.00
2019-06-10T11:51:32.882Z,4.05
2019-06-10T11:54:03.475Z,3.60
2019-06-10T11:56:33.653Z,3.75
2019-06-10T11:59:08.963Z,4.25
2019-06-10T12:01:32.206Z,4.50
2019-06-10T12:04:04.023Z,3.75
2019-06-10T12:06:33.370Z,4.00
2019-06-10T12:09:02.992Z,4.30
2019-06-10T12:11:31.887Z,4.97
2019-06-10T12:14:04.351Z,3.90
2019-06-10T12:17:15.543Z,4.55
2019-06-10T12:19:03.601Z,4.12
2019-06-10T12:21:38.736Z,4.60
2019-06-10T12:24:07.245Z,4.65
2019-06-10T12:26:35.845Z,4.20
2019-06-10T12:29:05.746Z,4.67
2019-06-10T12:31:38.637Z,4.50
2019-06-10T12:34:07.139Z,4.67
2019-06-10T12:36:42.106Z,5.05
2019-06-10T12:39:14.887Z,5.08
2019-06-10T12:41:42.960Z,4.50
2019-06-10T12:44:17.418Z,4.42
2019-06-10T12:46:45.884Z,4.83
2019-06-10T12:49:18.455Z,4.80
2019-06-10T12:51:49.250Z,5.00
2019-06-10T12:54:17.924Z,4.67
2019-06-10T12:56:46.505Z,4.90
2019-06-10T12:59:15.210Z,7.05
2019-06-10T13:01:44.763Z,8.03
2019-06-10T13:04:14.019Z,7.58
2019-06-10T13:06:46.152Z,8.20
2019-06-10T13:09:14.620Z,7.60
2019-06-10T13:11:49.782Z,8.43
2019-06-10T13:14:18.555Z,8.30
2019-06-10T13:16:47.075Z,8.03
2019-06-10T13:19:15.691Z,8.60
2019-06-10T13:21:44.260Z,7.70
2019-06-10T13:24:13.841Z,8.23
2019-06-10T13:26:43.303Z,8.15
2019-06-10T13:29:17.292Z,7.35
2019-06-10T13:31:43.633Z,8.38
2019-06-10T13:34:14.711Z,7.08
2019-06-10T13:36:42.532Z,7.42
2019-06-10T13:39:13.349Z,7.65
2019-06-10T13:41:44.343Z,7.72
2019-06-10T13:44:16.608Z,6.90
2019-06-10T13:46:43.475Z,6.75
2019-06-10T13:49:15.499Z,6.55
2019-06-10T13:51:45.683Z,6.22
2019-06-10T13:54:14.269Z,6.55
2019-06-10T13:56:47.462Z,6.45
2019-06-10T14:01:49.538Z,5.80
2019-06-10T14:04:21.749Z,6.30
2019-06-10T14:06:50.509Z,7.40
2019-06-10T14:09:18.572Z,6.87
2019-06-10T14:11:47.026Z,7.05
2019-06-10T14:14:18.536Z,7.30
2019-06-10T14:16:47.105Z,7.15
2019-06-10T14:19:16.249Z,6.80
2019-06-10T14:21:57.478Z,6.33
2019-06-10T14:24:25.936Z,6.83
2019-06-10T14:26:54.493Z,6.10
2019-06-10T14:29:23.130Z,6.40
2019-06-10T14:31:55.077Z,7.40
2019-06-10T14:34:23.683Z,6.20
2019-06-10T14:36:52.666Z,6.60
2019-06-10T14:39:22.123Z,6.40
2019-06-10T14:41:52.257Z,6.58
2019-06-10T14:44:23.253Z,6.87
2019-06-10T14:46:53.030Z,6.90
2019-06-10T14:49:22.292Z,7.58
2019-06-10T14:51:54.631Z,6.78
2019-06-10T14:54:23.243Z,7.80
2019-06-10T14:56:56.959Z,7.85
2019-06-10T14:59:22.661Z,7.10
2019-06-10T15:02:02.783Z,7.37
2019-06-10T15:04:33.012Z,7.72
2019-06-10T15:07:02.871Z,7.22
2019-06-10T15:09:33.353Z,6.70
2019-06-10T15:12:02.805Z,7.75
2019-06-10T15:14:32.396Z,7.22
2019-06-10T15:17:04.157Z,7.47
2019-06-10T15:19:33.348Z,8.83
2019-06-10T15:22:20.328Z,8.23
2019-06-10T15:24:48.950Z,8.35
2019-06-10T15:27:24.770Z,8.33
2019-06-10T15:29:47.670Z,8.60
2019-06-10T15:32:27.712Z,9.83
2019-06-10T15:34:46.533Z,7.47
2019-06-10T15:37:17.120Z,8.15
2019-06-10T15:39:45.229Z,8.50
2019-06-10T15:42:22.662Z,8.20
2019-06-10T15:44:53.449Z,8.95
2019-06-10T15:47:26.440Z,9.38
2019-06-10T15:49:52.511Z,9.53
2019-06-10T15:52:25.063Z,9.90
2019-06-10T15:54:52.929Z,9.10
2019-06-10T15:57:36.690Z,9.53
2019-06-10T16:00:04.203Z,8.45
2019-06-10T16:02:37.412Z,8.75
2019-06-10T16:05:07.245Z,8.45
2019-06-10T16:07:35.704Z,7.90
2019-06-10T16:10:06.827Z,7.83
2019-06-10T16:12:36.899Z,8.28
2019-06-10T16:15:06.720Z,8.38
2019-06-10T16:17:35.179Z,8.30
2019-06-10T16:20:07.340Z,9.30
2019-06-10T16:22:52.386Z,8.38
2019-06-10T16:25:23.602Z,8.90
2019-06-10T16:27:54.278Z,8.95
2019-06-10T16:30:23.194Z,9.38
2019-06-10T16:32:52.999Z,9.95
2019-06-10T16:35:23.912Z,9.55
2019-06-10T16:38:01.346Z,9.95
2019-06-10T16:40:32.380Z,9.45
2019-06-10T16:43:01.089Z,9.83
2019-06-10T16:45:31.704Z,9.68
2019-06-10T16:48:02.370Z,9.95
2019-06-10T16:50:34.088Z,10.18
2019-06-10T16:53:04.802Z,9.78
2019-06-10T16:55:33.467Z,9.80
2019-06-10T16:58:02.736Z,10.15
2019-06-10T17:00:34.479Z,10.48
2019-06-10T17:03:05.747Z,10.65
2019-06-10T17:05:34.221Z,10.93
2019-06-10T17:08:04.174Z,11.60
2019-06-10T17:10:35.933Z,11.53
2019-06-10T17:13:06.272Z,12.13
2019-06-10T17:15:34.782Z,12.73
2019-06-10T17:18:03.326Z,13.40
2019-06-10T17:20:38.334Z,12.78
2019-06-10T17:23:27.048Z,13.78
2019-06-10T17:25:56.483Z,13.05
2019-06-10T17:28:30.284Z,12.88
2019-06-10T17:30:57.397Z,13.20
2019-06-10T17:33:27.884Z,14.13
2019-06-10T17:35:56.846Z,15.05
2019-06-10T17:38:26.731Z,14.85
2019-06-10T17:40:57.852Z,15.05
2019-06-10T17:43:27.303Z,15.70
2019-06-10T17:45:55.881Z,15.98
2019-06-10T17:48:25.983Z,16.65
2019-06-10T17:50:54.566Z,17.35
2019-06-10T17:53:24.266Z,17.07
2019-06-10T17:55:52.906Z,17.95
2019-06-10T17:58:33.351Z,17.87
2019-06-10T18:00:53.065Z,16.42
2019-06-10T18:03:23.175Z,15.95
2019-06-10T18:05:53.285Z,14.30
2019-06-10T18:08:22.897Z,14.40
2019-06-10T18:10:57.623Z,14.58
2019-06-10T18:13:26.389Z,13.70
2019-06-10T18:15:54.876Z,14.10
2019-06-10T18:18:24.216Z,14.50
2019-06-10T18:20:53.864Z,13.60
2019-06-10T18:23:23.376Z,12.95
2019-06-10T18:25:52.944Z,12.75
2019-06-10T18:28:22.644Z,12.30
2019-06-10T18:30:53.219Z,13.13
2019-06-10T18:33:23.015Z,12.60
2019-06-10T18:35:53.232Z,12.55
2019-06-10T18:38:22.328Z,13.40
2019-06-10T18:40:53.303Z,12.70
2019-06-10T18:43:23.016Z,13.35
2019-06-10T18:45:53.222Z,14.78
2019-06-10T18:48:23.146Z,13.20
2019-06-10T18:50:53.398Z,14.30
2019-06-10T18:53:23.657Z,13.40
2019-06-10T18:55:54.729Z,13.55
2019-06-10T18:58:22.794Z,14.43
2019-06-10T19:01:03.942Z,14.25
2019-06-10T19:03:28.430Z,13.65
2019-06-10T19:05:57.045Z,14.50
2019-06-10T19:08:25.509Z,15.45
2019-06-10T19:10:58.661Z,16.45
2019-06-10T19:13:27.199Z,15.78
2019-06-10T19:15:55.734Z,16.37
2019-06-10T19:18:24.328Z,17.00
2019-06-10T19:20:53.345Z,15.65
2019-06-10T19:23:22.925Z,16.62
2019-06-10T19:25:52.435Z,18.80
2019-06-10T19:28:22.830Z,19.65
2019-06-10T19:30:53.557Z,19.75
2019-06-10T19:33:23.583Z,17.40
2019-06-10T19:35:53.035Z,19.25
2019-06-10T19:38:23.035Z,19.02
2019-06-10T19:40:52.480Z,19.00
2019-06-10T19:43:21.051Z,20.23
2019-06-10T19:45:49.692Z,22.50
2019-06-10T19:48:18.276Z,23.32
2019-06-10T19:50:50.209Z,23.55
2019-06-10T19:53:17.827Z,25.10
2019-06-10T19:55:46.624Z,26.62
2019-06-10T19:58:15.175Z,25.27
2019-06-10T20:00:50.852Z,25.45
2019-06-10T20:03:13.944Z,25.35
2019-06-10T20:05:44.813Z,28.00
2019-06-10T20:08:12.714Z,26.23
2019-06-10T20:10:42.331Z,27.45
2019-06-10T20:13:11.303Z,26.45
2019-06-10T20:15:39.855Z,26.23
2019-06-10T20:18:08.976Z,28.75
2019-06-10T20:20:38.208Z,29.18
2019-06-10T20:23:08.805Z,29.67
2019-06-10T20:25:41.045Z,32.38
2019-06-10T20:28:09.966Z,27.30
2019-06-10T20:30:38.807Z,28.75
2019-06-10T20:33:18.345Z,30.27
2019-06-10T20:35:46.879Z,27.80
2019-06-10T20:38:15.346Z,30.45
2019-06-10T20:40:45.658Z,30.20
2019-06-10T20:43:14.236Z,29.27
2019-06-10T20:45:46.218Z,31.90
2019-06-10T20:48:13.099Z,32.17
2019-06-10T20:50:44.054Z,33.70
2019-06-10T20:53:18.114Z,35.13
2019-06-10T20:55:50.652Z,34.25
2019-06-10T20:58:12.498Z,38.73
2019-06-10T21:00:48.072Z,36.28
2019-06-10T21:03:11.544Z,34.45
2019-06-10T21:05:43.694Z,34.27
2019-06-10T21:08:12.377Z,37.58
2019-06-10T21:10:44.683Z,39.13
2019-06-10T21:13:12.480Z,38.63
2019-06-10T21:15:46.726Z,38.20
2019-06-10T21:18:13.194Z,46.25
2019-06-10T21:20:46.644Z,42.08
2019-06-10T21:23:15.487Z,42.90
2019-06-10T21:25:45.834Z,44.98
2019-06-10T21:28:13.090Z,50.08
2019-06-10T21:30:48.452Z,48.17
2019-06-10T21:33:13.001Z,48.13
2019-06-10T21:35:44.079Z,49.88
2019-06-10T21:38:12.771Z,50.48
2019-06-10T21:40:42.496Z,50.08
2019-06-10T21:43:14.677Z,50.78
2019-06-10T21:45:49.110Z,50.10
2019-06-10T21:48:13.339Z,53.08
2019-06-10T21:50:54.283Z,50.58
2019-06-10T21:53:22.308Z,50.15
2019-06-10T21:55:53.456Z,49.27
2019-06-10T21:58:22.577Z,47.25
2019-06-10T22:01:09.649Z,42.38
2019-06-10T22:03:32.115Z,42.93
2019-06-10T22:05:59.764Z,47.90
2019-06-10T22:08:28.437Z,42.15
2019-06-10T22:10:58.964Z,40.85
2019-06-10T22:13:27.421Z,39.90
2019-06-10T22:15:57.135Z,41.30
2019-06-10T22:18:26.817Z,35.80
2019-06-10T22:20:57.513Z,36.10
2019-06-10T22:23:25.693Z,38.28
2019-06-10T22:26:02.597Z,38.55
2019-06-10T22:28:32.675Z,40.43
2019-06-10T22:31:15.955Z,37.50
2019-06-10T22:33:32.042Z,40.05
2019-06-10T22:36:02.395Z,42.98
2019-06-10T22:38:32.801Z,40.33
2019-06-10T22:41:03.279Z,37.78
2019-06-10T22:43:32.186Z,41.13
2019-06-10T22:46:00.782Z,41.50
2019-06-10T22:48:33.312Z,47.13
2019-06-10T22:51:02.324Z,44.42
2019-06-10T22:53:33.152Z,50.58
2019-06-10T22:56:02.987Z,50.75
2019-06-10T22:58:31.415Z,50.65
2019-06-10T23:01:04.039Z,53.70
2019-06-10T23:03:31.932Z,53.20
2019-06-10T23:06:02.668Z,53.52
2019-06-10T23:08:33.252Z,53.10
2019-06-10T23:11:02.814Z,55.70
2019-06-10T23:13:31.921Z,53.78
2019-06-10T23:16:02.437Z,58.13
2019-06-10T23:18:32.061Z,55.48
2019-06-10T23:21:01.586Z,53.50
2019-06-10T23:23:32.587Z,52.17
2019-06-10T23:26:02.913Z,55.52
2019-06-10T23:28:32.722Z,53.40
2019-06-10T23:31:02.467Z,52.73
2019-06-10T23:33:32.433Z,51.77
2019-06-10T23:36:03.740Z,50.15
2019-06-10T23:38:32.870Z,54.08
2019-06-10T23:41:03.555Z,56.45
2019-06-10T23:43:32.998Z,54.33
2019-06-10T23:46:04.734Z,58.00
2019-06-10T23:51:04.720Z,57.78
2019-06-10T23:53:34.109Z,61.05
2019-06-10T23:56:04.725Z,63.73
2019-06-10T23:58:33.058Z,63.48
